createdAt,value
2023-05-10T00:01:25.151Z,756
2023-05-10T00:03:08.846Z,754.9
2023-05-10T00:04:52.544Z,753.6
2023-05-10T00:06:36.322Z,751.1
2023-05-10T00:08:19.940Z,750.8
2023-05-10T00:10:03.652Z,750.6
2023-05-10T00:11:47.360Z,748.6
2023-05-10T00:13:31.065Z,747.6
2023-05-10T00:15:14.741Z,747.6
2023-05-10T00:16:58.458Z,748.4
2023-05-10T00:18:42.165Z,748.6
2023-05-10T00:20:25.867Z,746.7
2023-05-10T00:22:09.554Z,744.9
2023-05-10T00:23:53.270Z,744.8
2023-05-10T00:25:36.980Z,745.3
2023-05-10T00:27:20.673Z,746.5
2023-05-10T00:29:04.372Z,743.7
2023-05-10T00:30:48.083Z,744.1
2023-05-10T00:32:31.781Z,744.2
2023-05-10T00:34:15.510Z,742.5
2023-05-10T00:35:59.192Z,737.7
2023-05-10T00:37:42.942Z,733
2023-05-10T00:39:26.592Z,733.2
2023-05-10T00:41:10.305Z,732.8
2023-05-10T00:42:54.066Z,732.5
2023-05-10T00:44:37.731Z,734
2023-05-10T00:46:21.421Z,732.1
2023-05-10T00:48:05.115Z,731.1
2023-05-10T00:49:48.850Z,732.6
2023-05-10T00:51:32.597Z,731.4
2023-05-10T00:53:16.235Z,730.4
2023-05-10T00:54:59.946Z,729.1
2023-05-10T00:56:43.627Z,727.1
2023-05-10T00:58:27.342Z,725.3
2023-05-10T01:00:11.038Z,724.8
2023-05-10T01:01:54.812Z,725.4
2023-05-10T01:03:38.460Z,724.7
2023-05-10T01:05:22.146Z,725.8
2023-05-10T01:15:44.352Z,709.7
2023-05-10T01:17:28.082Z,710.5
2023-05-10T01:19:11.780Z,711.7
2023-05-10T01:20:55.476Z,708.2
2023-05-10T01:22:39.181Z,707.6
2023-05-10T01:24:22.878Z,706.2
2023-05-10T01:26:06.585Z,708.1
2023-05-10T01:27:50.297Z,710
2023-05-10T01:29:33.977Z,709
2023-05-10T01:31:17.702Z,706.4
2023-05-10T01:33:01.425Z,702.6
2023-05-10T01:34:45.133Z,699
2023-05-10T01:36:28.793Z,699.9
2023-05-10T01:38:12.493Z,700
2023-05-10T01:39:56.200Z,700.3
2023-05-10T01:41:39.914Z,701.6
2023-05-10T01:43:23.618Z,697.4
2023-05-10T01:45:07.318Z,694.5
2023-05-10T01:46:51.031Z,690.8
2023-05-10T01:48:34.727Z,688.1
2023-05-10T01:50:18.428Z,688
2023-05-10T01:52:02.127Z,686.9
2023-05-10T01:53:45.839Z,684.6
2023-05-10T01:55:29.524Z,684.9
2023-05-10T01:57:13.250Z,684.1
2023-05-10T01:58:56.947Z,681.7
2023-05-10T02:00:40.636Z,678.8
2023-05-10T02:02:24.342Z,677.7
2023-05-10T02:04:08.046Z,677.5
2023-05-10T02:05:51.751Z,675.6
2023-05-10T02:07:35.461Z,676.2
2023-05-10T02:09:19.144Z,679.3
2023-05-10T02:11:02.937Z,680.4
2023-05-10T02:12:46.596Z,677.3
2023-05-10T02:14:30.279Z,671.8
2023-05-10T02:16:13.958Z,670.8
2023-05-10T02:17:57.667Z,672.7
2023-05-10T02:19:41.371Z,673.3
2023-05-10T02:21:25.099Z,672.7
2023-05-10T02:23:08.785Z,673.6
2023-05-10T02:24:52.510Z,675.2
2023-05-10T02:26:36.180Z,670.7
2023-05-10T02:28:19.893Z,669.1
2023-05-10T02:30:03.591Z,666.9
2023-05-10T02:31:47.291Z,667.9
2023-05-10T02:33:31.042Z,665.8
2023-05-10T02:35:14.708Z,663.9
2023-05-10T02:36:58.411Z,667.2
2023-05-10T02:38:42.115Z,665.3
2023-05-10T02:40:25.837Z,665.3
2023-05-10T02:42:09.542Z,665.3
2023-05-10T02:43:53.224Z,666.8
2023-05-10T02:45:36.938Z,667.6
2023-05-10T02:47:20.635Z,668.7
2023-05-10T02:49:04.335Z,670.7
2023-05-10T02:50:48.042Z,671.1
2023-05-10T02:52:31.751Z,666.6
2023-05-10T02:54:15.463Z,663.3
2023-05-10T02:55:59.157Z,659.5
2023-05-10T02:57:42.855Z,658
2023-05-10T02:59:26.647Z,656.1
2023-05-10T03:01:10.272Z,653.7
2023-05-10T03:02:53.948Z,649.1
2023-05-10T03:04:37.660Z,643.7
2023-05-10T03:06:21.385Z,642.9
2023-05-10T03:08:05.083Z,642.8
2023-05-10T03:09:48.775Z,643.8
2023-05-10T03:11:32.472Z,645.5
2023-05-10T03:13:16.185Z,644.5
2023-05-10T03:14:59.900Z,643.8
2023-05-10T03:16:43.588Z,644.5
2023-05-10T03:18:27.300Z,646.5
2023-05-10T03:20:11.016Z,648
2023-05-10T03:21:54.707Z,650
2023-05-10T03:23:38.423Z,651.9
2023-05-10T03:25:22.151Z,648.7
2023-05-10T03:27:05.826Z,651
2023-05-10T03:28:49.522Z,650.3
2023-05-10T03:30:33.226Z,650.2
2023-05-10T03:32:16.926Z,650.3
2023-05-10T03:34:00.630Z,651.5
2023-05-10T03:35:44.344Z,649.5
2023-05-10T03:37:28.033Z,648.8
2023-05-10T03:39:11.761Z,646.9
2023-05-10T03:40:55.450Z,642.8
2023-05-10T03:42:39.139Z,638.5
2023-05-10T03:44:22.846Z,634.8
2023-05-10T03:46:06.627Z,635
2023-05-10T03:47:50.291Z,635.5
2023-05-10T03:49:33.960Z,633.8
2023-05-10T03:51:17.671Z,630.6
2023-05-10T03:53:01.411Z,625.8
2023-05-10T03:54:45.071Z,627.9
2023-05-10T03:56:28.794Z,625.5
2023-05-10T03:58:12.476Z,626
2023-05-10T03:59:56.175Z,623.3
2023-05-10T04:01:39.893Z,623.6
2023-05-10T04:03:23.566Z,623.6
2023-05-10T04:05:07.272Z,623.6
2023-05-10T04:06:50.999Z,623.2
2023-05-10T04:08:34.689Z,624.2
2023-05-10T04:10:18.378Z,625.8
2023-05-10T04:12:02.077Z,623.3
2023-05-10T04:13:45.805Z,622.4
2023-05-10T04:15:29.496Z,621.1
2023-05-10T04:17:13.196Z,623.9
2023-05-10T04:18:56.888Z,621.3
2023-05-10T04:20:40.645Z,623.1
2023-05-10T04:22:24.293Z,619.6
2023-05-10T04:24:08.006Z,615.8
2023-05-10T04:25:51.700Z,613.5
2023-05-10T04:27:35.412Z,613.3
2023-05-10T04:29:19.121Z,615.7
2023-05-10T04:31:02.822Z,615.6
2023-05-10T04:32:46.527Z,616.4
2023-05-10T04:34:30.227Z,614.1
2023-05-10T04:36:13.928Z,612.8
2023-05-10T04:37:57.624Z,612.2
2023-05-10T04:39:41.323Z,608.2
2023-05-10T04:41:25.040Z,605.7
2023-05-10T04:43:08.740Z,607.1
2023-05-10T04:44:52.435Z,606.7
2023-05-10T04:46:36.138Z,606.9
2023-05-10T04:48:19.852Z,606
2023-05-10T04:50:03.546Z,605.2
2023-05-10T04:51:47.251Z,605.4
2023-05-10T04:53:30.957Z,601.6
2023-05-10T04:55:14.662Z,601.7
2023-05-10T04:56:58.367Z,600
2023-05-10T04:58:42.041Z,598.2
2023-05-10T05:00:25.757Z,597.7
2023-05-10T05:02:09.476Z,598.5
2023-05-10T05:03:53.158Z,601.7
2023-05-10T05:05:36.864Z,601.6
2023-05-10T05:07:20.560Z,596.1
2023-05-10T05:09:04.335Z,594.8
2023-05-10T05:10:47.978Z,592.8
2023-05-10T05:12:31.676Z,592.8
2023-05-10T05:14:15.374Z,588.5
2023-05-10T05:15:59.081Z,588.3
2023-05-10T05:17:42.767Z,587.3
2023-05-10T05:19:26.481Z,585.6
2023-05-10T05:21:10.176Z,584.9
2023-05-10T05:22:53.980Z,589.5
2023-05-10T05:24:37.596Z,589.5
2023-05-10T05:26:21.282Z,586
2023-05-10T05:28:04.985Z,585.8
2023-05-10T05:29:48.713Z,585.2
2023-05-10T05:31:32.438Z,584.7
2023-05-10T05:33:16.093Z,585.9
2023-05-10T05:34:59.792Z,584
2023-05-10T05:36:43.510Z,584.5
2023-05-10T05:38:27.221Z,585.4
2023-05-10T05:40:10.986Z,583.7
2023-05-10T05:41:54.675Z,583.7
2023-05-10T05:43:38.505Z,583.9
2023-05-10T05:45:22.096Z,583.6
2023-05-10T05:47:05.826Z,585
2023-05-10T05:48:49.433Z,584.9
2023-05-10T05:50:33.175Z,583.3
2023-05-10T05:52:16.856Z,581.4
2023-05-10T05:54:00.542Z,579.7
2023-05-10T05:55:44.240Z,580.8
2023-05-10T05:57:28.010Z,582.5
2023-05-10T05:59:11.706Z,581.4
2023-05-10T06:00:55.388Z,579.5
2023-05-10T06:02:39.108Z,580.1
2023-05-10T06:04:22.884Z,577.4
2023-05-10T06:06:06.501Z,575.4
2023-05-10T06:07:50.155Z,575
2023-05-10T06:09:33.932Z,574.1
2023-05-10T06:11:17.646Z,573.1
2023-05-10T06:13:01.311Z,570.5
2023-05-10T06:14:45.013Z,572.1
2023-05-10T06:16:28.670Z,574.1
2023-05-10T06:18:12.390Z,576.7
2023-05-10T06:19:56.061Z,576.3
2023-05-10T06:21:39.837Z,574.4
2023-05-10T06:23:23.515Z,574.4
2023-05-10T06:25:07.173Z,573.5
2023-05-10T06:26:50.871Z,573.1
2023-05-10T06:28:34.630Z,572.7
2023-05-10T06:30:18.274Z,574
2023-05-10T06:32:01.970Z,576
2023-05-10T06:33:45.682Z,577.9
2023-05-10T06:35:29.417Z,578.8
2023-05-10T06:37:13.111Z,576.4
2023-05-10T06:38:56.856Z,576.4
2023-05-10T06:40:40.568Z,575.9
2023-05-10T06:42:24.197Z,579.9
2023-05-10T06:44:07.935Z,579.2
2023-05-10T06:45:51.583Z,579.3
2023-05-10T06:47:35.286Z,576.2
2023-05-10T06:49:19.055Z,571.2
2023-05-10T06:51:02.725Z,565.3
2023-05-10T06:52:46.484Z,563.9
2023-05-10T06:54:30.280Z,562.7
2023-05-10T06:56:13.870Z,560.4
2023-05-10T06:57:57.646Z,557.5
2023-05-10T06:59:41.293Z,557.4
2023-05-10T07:01:24.966Z,560.3
2023-05-10T07:03:08.622Z,561.2
2023-05-10T07:04:52.367Z,562.8
2023-05-10T07:06:36.104Z,565.2
2023-05-10T07:08:19.849Z,567.3
2023-05-10T07:10:03.545Z,568.4
2023-05-10T07:11:47.140Z,569.8
2023-05-10T07:13:30.935Z,570.3
2023-05-10T07:15:14.539Z,569.7
2023-05-10T07:16:58.343Z,573.3
2023-05-10T07:18:42.096Z,575.5
2023-05-10T07:20:25.740Z,579.9
2023-05-10T07:22:09.385Z,581.5
2023-05-10T07:23:53.065Z,585.1
2023-05-10T07:25:36.806Z,586.9
2023-05-10T07:27:20.462Z,588.2
2023-05-10T07:29:04.319Z,590.3
2023-05-10T07:30:48.009Z,592.8
2023-05-10T07:32:31.667Z,603.7
2023-05-10T07:34:15.262Z,616
2023-05-10T07:35:58.939Z,623.7
2023-05-10T07:37:42.745Z,629.9
2023-05-10T07:39:26.354Z,633.6
2023-05-10T07:41:10.074Z,632.7
2023-05-10T07:42:53.790Z,631.5
2023-05-10T07:44:37.470Z,629
2023-05-10T07:46:21.263Z,628.7
2023-05-10T07:48:04.911Z,617.3
2023-05-10T07:49:48.568Z,598.7
2023-05-10T07:51:32.272Z,593.6
2023-05-10T07:53:15.964Z,594.8
2023-05-10T07:54:59.676Z,593.5
2023-05-10T07:56:43.372Z,593.6
2023-05-10T07:58:27.173Z,591.7
2023-05-10T08:00:10.790Z,590.5
2023-05-10T08:01:54.550Z,591.4
2023-05-10T08:03:38.223Z,593.4
2023-05-10T08:05:21.898Z,597.7
2023-05-10T08:07:05.634Z,599.8
2023-05-10T08:08:49.296Z,599.9
2023-05-10T08:10:32.982Z,600.1
2023-05-10T08:12:16.691Z,601.8
2023-05-10T08:14:00.377Z,601.2
2023-05-10T08:15:44.084Z,602.7
2023-05-10T08:17:27.793Z,601.5
2023-05-10T08:19:11.542Z,603.6
2023-05-10T08:20:55.215Z,603.2
2023-05-10T08:22:38.995Z,601.3
2023-05-10T08:24:22.588Z,601.8
2023-05-10T08:26:06.372Z,600.4
2023-05-10T08:27:50.170Z,600.3
2023-05-10T08:29:33.856Z,601.3
2023-05-10T08:31:17.479Z,599.5
2023-05-10T08:33:01.287Z,598.4
2023-05-10T08:34:44.980Z,598.4
2023-05-10T08:36:28.696Z,599
2023-05-10T08:38:12.331Z,598.6
2023-05-10T08:39:55.911Z,599.3
2023-05-10T08:41:39.769Z,601.3
2023-05-10T08:43:23.325Z,601.5
2023-05-10T08:45:06.986Z,603
2023-05-10T08:46:50.842Z,601.9
2023-05-10T08:48:34.508Z,598.2
2023-05-10T08:50:18.123Z,597.1
2023-05-10T08:52:01.898Z,595.2
2023-05-10T08:53:45.661Z,595.3
2023-05-10T08:55:29.304Z,594.8
2023-05-10T08:57:13.001Z,597.8
2023-05-10T08:58:56.735Z,596.1
2023-05-10T09:00:40.320Z,597.4
2023-05-10T09:02:24.081Z,596.8
2023-05-10T09:04:07.723Z,595.8
2023-05-10T09:05:51.420Z,595.4
2023-05-10T09:07:35.138Z,598.3
2023-05-10T09:09:18.810Z,603.8
2023-05-10T09:11:02.526Z,608.8
2023-05-10T09:12:46.278Z,614.2
2023-05-10T09:14:29.934Z,621.2
2023-05-10T09:16:13.630Z,625.8
2023-05-10T09:17:57.333Z,627.1
2023-05-10T09:19:41.013Z,629.6
2023-05-10T09:21:24.797Z,628.5
2023-05-10T09:23:08.452Z,630.5
2023-05-10T09:24:52.127Z,634.4
2023-05-10T09:26:35.931Z,632
2023-05-10T09:28:19.542Z,521.8
2023-05-10T09:30:03.251Z,536.7
2023-05-10T09:31:46.948Z,592.1
2023-05-10T09:33:30.674Z,601
2023-05-10T09:35:14.350Z,594.6
2023-05-10T09:36:58.108Z,585.8
2023-05-10T09:38:41.754Z,591.6
2023-05-10T09:40:25.465Z,591.1
2023-05-10T09:42:09.151Z,587.7
2023-05-10T09:43:52.873Z,587.6
2023-05-10T09:45:36.580Z,577.3
2023-05-10T09:47:20.260Z,500.8
2023-05-10T09:49:03.979Z,469.9
2023-05-10T09:50:47.692Z,467.1
2023-05-10T09:52:31.378Z,558.7
2023-05-10T09:54:15.097Z,594.2
2023-05-10T09:55:58.818Z,584.2
2023-05-10T09:57:42.555Z,586.2
2023-05-10T09:59:26.209Z,590.6
2023-05-10T10:01:09.899Z,595
2023-05-10T10:02:53.601Z,601.9
2023-05-10T10:04:37.335Z,610
2023-05-10T10:06:21.009Z,616.3
2023-05-10T10:08:04.718Z,622.4
2023-05-10T10:09:48.424Z,636
2023-05-10T10:11:32.155Z,645.9
2023-05-10T10:13:15.869Z,653.9
2023-05-10T10:14:59.561Z,659.7
2023-05-10T10:16:43.236Z,663.9
2023-05-10T10:18:26.941Z,668.4
2023-05-10T10:20:10.638Z,673.5
2023-05-10T10:21:54.346Z,673.9
2023-05-10T10:23:38.076Z,677.8
2023-05-10T10:25:21.757Z,681.3
2023-05-10T10:27:05.461Z,678.4
2023-05-10T10:28:49.165Z,674.7
2023-05-10T10:30:32.872Z,670
2023-05-10T10:32:16.675Z,666.4
2023-05-10T10:34:00.433Z,663.2
2023-05-10T10:35:43.977Z,661.6
2023-05-10T10:37:27.850Z,662.4
2023-05-10T10:39:11.379Z,657
2023-05-10T10:40:55.258Z,660.5
2023-05-10T10:42:38.781Z,669
2023-05-10T10:44:22.498Z,680.3
2023-05-10T10:46:06.196Z,694.6
2023-05-10T10:47:50.051Z,704.6
2023-05-10T10:49:33.650Z,715.6
2023-05-10T10:51:17.311Z,724.5
2023-05-10T10:53:01.137Z,737.2
2023-05-10T10:54:44.717Z,743.1
2023-05-10T10:56:28.425Z,742.4
2023-05-10T10:58:12.134Z,739.2
2023-05-10T11:03:23.226Z,732.5
2023-05-10T11:05:06.913Z,731.9
2023-05-10T11:06:50.669Z,732.1
2023-05-10T11:08:34.387Z,730.8
2023-05-10T11:10:18.084Z,730.3
2023-05-10T11:12:01.727Z,733.3
2023-05-10T11:13:45.427Z,736.6
2023-05-10T11:15:29.152Z,654.7
2023-05-10T11:17:12.846Z,543.1
2023-05-10T11:18:56.557Z,628.5
2023-05-10T11:20:40.320Z,701
2023-05-10T11:22:23.950Z,696.7
2023-05-10T11:24:07.772Z,686.5
2023-05-10T11:25:51.446Z,680.6
2023-05-10T11:27:35.064Z,715
2023-05-10T11:29:18.786Z,722
2023-05-10T11:31:02.488Z,733.2
2023-05-10T11:32:46.172Z,735.7
2023-05-10T11:34:29.906Z,735.8
2023-05-10T11:36:13.604Z,740.4
2023-05-10T11:37:57.291Z,745.7
2023-05-10T11:39:41.003Z,751.2
2023-05-10T11:41:24.691Z,760.1
2023-05-10T11:43:08.421Z,769.7
2023-05-10T11:44:52.101Z,784.8
2023-05-10T11:46:35.786Z,788.8
2023-05-10T11:48:19.491Z,804
2023-05-10T11:50:03.223Z,836.1
2023-05-10T11:51:46.923Z,835.7
2023-05-10T11:53:30.596Z,840
2023-05-10T11:55:14.338Z,829.7
2023-05-10T11:56:58.002Z,823.4
2023-05-10T11:58:41.708Z,814.6
2023-05-10T12:00:25.434Z,805.2
2023-05-10T12:02:09.141Z,797.7
2023-05-10T12:03:52.813Z,793.4
2023-05-10T12:05:36.514Z,789.4
2023-05-10T12:07:20.216Z,741.9
2023-05-10T12:09:03.921Z,680
2023-05-10T12:10:47.641Z,820
2023-05-10T12:12:31.323Z,844.3
2023-05-10T12:14:15.056Z,859.1
2023-05-10T12:15:58.763Z,875.8
2023-05-10T12:17:42.455Z,895.1
2023-05-10T12:19:26.132Z,914.5
2023-05-10T12:21:09.820Z,934
2023-05-10T12:22:53.525Z,956.1
2023-05-10T12:24:37.247Z,933.7
2023-05-10T12:26:20.937Z,906.1
2023-05-10T12:28:04.646Z,899.5
2023-05-10T12:29:48.339Z,912.7
2023-05-10T12:31:32.020Z,915.1
2023-05-10T12:33:15.765Z,920.4
2023-05-10T12:34:59.457Z,940.6
2023-05-10T12:36:43.185Z,948.1
2023-05-10T12:38:26.871Z,940.4
2023-05-10T12:40:10.551Z,928.1
2023-05-10T12:41:54.238Z,910.1
2023-05-10T12:43:37.956Z,909.9
2023-05-10T12:45:21.667Z,912.1
2023-05-10T12:47:05.528Z,915.7
2023-05-10T12:48:49.036Z,922.1
2023-05-10T12:50:32.864Z,950.5
2023-05-10T12:52:16.464Z,945.3
2023-05-10T12:54:00.276Z,948.4
2023-05-10T12:55:43.956Z,954.7
2023-05-10T12:57:27.542Z,958.1
2023-05-10T12:59:11.261Z,961.9
2023-05-10T13:00:55.017Z,972.4
2023-05-10T13:02:38.645Z,968.4
2023-05-10T13:04:22.403Z,960.2
2023-05-10T13:06:06.065Z,952.2
2023-05-10T13:07:49.785Z,941
2023-05-10T13:09:33.463Z,926.3
2023-05-10T13:11:17.156Z,913.8
2023-05-10T13:13:00.870Z,906.3
2023-05-10T13:14:44.587Z,902.7
2023-05-10T13:16:28.347Z,900.4
2023-05-10T13:18:11.979Z,900.9
2023-05-10T13:19:55.708Z,898.2
2023-05-10T13:21:39.484Z,893.8
2023-05-10T13:23:23.113Z,889.4
2023-05-10T13:25:06.763Z,883.1
2023-05-10T13:26:50.491Z,879.4
2023-05-10T13:28:34.183Z,880.4
2023-05-10T13:30:17.858Z,877.7
2023-05-10T13:32:01.621Z,874.4
2023-05-10T13:33:45.363Z,876.1
2023-05-10T13:35:28.971Z,876.1
2023-05-10T13:37:12.785Z,875.8
2023-05-10T13:38:56.500Z,874.1
2023-05-10T13:40:40.211Z,870.9
2023-05-10T13:42:23.805Z,867.3
2023-05-10T13:44:07.531Z,864.8
2023-05-10T13:45:51.288Z,862.4
2023-05-10T13:47:34.907Z,860.9
2023-05-10T13:49:18.659Z,864.3
2023-05-10T13:51:02.284Z,860.6
2023-05-10T13:52:45.993Z,856.9
2023-05-10T13:54:29.690Z,852.7
2023-05-10T13:56:13.469Z,851.4
2023-05-10T13:57:56.836Z,850.8
2023-05-10T13:59:40.469Z,849.8
2023-05-10T14:01:24.181Z,849.7
2023-05-10T14:03:07.901Z,850.1
2023-05-10T14:04:51.578Z,849.5
2023-05-10T14:06:35.309Z,850.3
2023-05-10T14:08:19.082Z,852.5
2023-05-10T14:10:02.701Z,853.8
2023-05-10T14:11:46.380Z,849.6
2023-05-10T14:13:30.086Z,842.9
2023-05-10T14:15:13.873Z,838.4
2023-05-10T14:16:57.540Z,835.5
2023-05-10T14:18:41.206Z,833.3
2023-05-10T14:20:24.889Z,829
2023-05-10T14:22:08.590Z,825.5
2023-05-10T14:23:52.338Z,820.4
2023-05-10T14:25:36.078Z,818.3
2023-05-10T14:27:19.750Z,817.1
2023-05-10T14:29:03.430Z,813.7
2023-05-10T14:30:47.077Z,811.4
2023-05-10T14:32:30.862Z,808.9
2023-05-10T14:34:14.512Z,803.3
2023-05-10T14:35:58.237Z,801.8
2023-05-10T14:37:41.920Z,803.5
2023-05-10T14:39:25.572Z,801.5
2023-05-10T14:41:09.286Z,800.8
2023-05-10T14:42:53.005Z,801.1
2023-05-10T14:44:36.687Z,811.6
2023-05-10T14:46:20.475Z,841.4
2023-05-10T14:48:04.095Z,871.3
2023-05-10T14:49:47.793Z,877.5
2023-05-10T14:51:31.515Z,884
2023-05-10T14:53:15.234Z,893.5
2023-05-10T14:54:58.899Z,904.2
2023-05-10T14:56:42.737Z,914.9
2023-05-10T14:58:26.333Z,916.4
2023-05-10T15:00:10.246Z,911.7
2023-05-10T15:01:53.752Z,901.8
2023-05-10T15:03:37.549Z,891.3
2023-05-10T15:05:21.129Z,895.7
2023-05-10T15:07:04.974Z,903.4
2023-05-10T15:08:48.633Z,908.8
2023-05-10T15:10:32.375Z,915.2
2023-05-10T15:12:16.006Z,919
2023-05-10T15:13:59.717Z,924.2
2023-05-10T15:15:43.350Z,928.5
2023-05-10T15:17:27.187Z,928.6
2023-05-10T15:19:10.753Z,927.1
2023-05-10T15:20:54.549Z,922.5
2023-05-10T15:22:38.250Z,920.9
2023-05-10T15:24:21.977Z,923.2
2023-05-10T15:26:05.616Z,924.6
2023-05-10T15:27:49.289Z,927.5
2023-05-10T15:29:33.085Z,923.5
2023-05-10T15:31:16.753Z,925.7
2023-05-10T15:33:00.441Z,922.6
2023-05-10T15:34:44.120Z,919.1
2023-05-10T15:36:27.848Z,917.3
2023-05-10T15:38:11.544Z,917.2
2023-05-10T15:39:55.172Z,911.5
2023-05-10T15:41:38.960Z,904.6
2023-05-10T15:43:22.646Z,892.3
2023-05-10T15:45:06.380Z,883.2
2023-05-10T15:46:50.124Z,878.9
2023-05-10T15:48:33.769Z,879.4
2023-05-10T15:50:17.377Z,878.3
2023-05-10T15:52:01.072Z,879.1
2023-05-10T15:53:44.765Z,883.9
2023-05-10T15:55:28.526Z,890.5
2023-05-10T15:57:12.301Z,901.5
2023-05-10T15:58:55.878Z,912.2
2023-05-10T16:00:39.653Z,919
2023-05-10T16:02:23.359Z,927.9
2023-05-10T16:04:07.009Z,935.3
2023-05-10T16:05:50.679Z,948.1
2023-05-10T16:07:34.374Z,956.3
2023-05-10T16:09:18.098Z,963.2
2023-05-10T16:11:01.838Z,963
2023-05-10T16:12:45.537Z,972.1
2023-05-10T16:14:29.176Z,975.3
2023-05-10T16:16:12.861Z,974.7
2023-05-10T16:17:56.569Z,979.2
2023-05-10T16:19:40.303Z,975.1
2023-05-10T16:21:23.992Z,968.8
2023-05-10T16:23:07.662Z,969.9
2023-05-10T16:24:51.443Z,997.8
2023-05-10T16:26:35.166Z,1022.7
2023-05-10T16:28:18.805Z,1037.7
2023-05-10T16:30:02.501Z,1047.4
2023-05-10T16:31:46.305Z,1050.2
2023-05-10T16:33:29.907Z,1044
2023-05-10T16:35:13.595Z,1040
2023-05-10T16:36:57.342Z,1032.6
2023-05-10T16:38:40.983Z,1032.9
2023-05-10T16:40:24.715Z,1043.6
2023-05-10T16:42:08.403Z,1045.4
2023-05-10T16:43:52.125Z,1053.9
2023-05-10T16:45:35.858Z,1060.2
2023-05-10T16:47:19.503Z,1061.8
2023-05-10T16:49:03.185Z,1066.3
2023-05-10T16:50:46.903Z,1118.3
2023-05-10T16:52:30.635Z,1125.8
2023-05-10T16:54:14.316Z,1130.6
2023-05-10T16:55:57.983Z,1151.1
2023-05-10T16:57:41.746Z,1168.6
2023-05-10T16:59:25.396Z,1168.1
2023-05-10T17:01:09.176Z,1169.7
2023-05-10T17:02:52.841Z,1175.5
2023-05-10T17:04:36.581Z,1174
2023-05-10T17:06:20.216Z,1083.7
2023-05-10T17:08:03.921Z,1042.7
2023-05-10T17:09:47.601Z,1027.4
2023-05-10T17:11:31.344Z,1023.6
2023-05-10T17:13:15.019Z,1028.6
2023-05-10T17:14:58.794Z,1037.6
2023-05-10T17:16:42.420Z,1045
2023-05-10T17:18:26.211Z,1050.6
2023-05-10T17:20:09.876Z,1054.7
2023-05-10T17:21:53.579Z,1062.4
2023-05-10T17:23:37.240Z,1068.6
2023-05-10T17:25:20.925Z,1076.2
2023-05-10T17:27:04.673Z,1080.1
2023-05-10T17:28:48.401Z,1084.5
2023-05-10T17:30:32.025Z,1085.4
2023-05-10T17:32:15.729Z,1085.9
2023-05-10T17:33:59.429Z,1089
2023-05-10T17:35:43.307Z,1092.3
2023-05-10T17:37:26.828Z,1094.1
2023-05-10T17:39:10.589Z,1094.4
2023-05-10T17:40:54.291Z,1097.4
2023-05-10T17:42:38.046Z,1101.9
2023-05-10T17:44:21.699Z,1099.4
2023-05-10T17:46:05.460Z,1102.3
2023-05-10T17:47:49.056Z,1108.3
2023-05-10T17:49:32.774Z,1106.5
2023-05-10T17:51:16.466Z,1106
2023-05-10T17:53:00.185Z,1101.9
2023-05-10T17:54:43.855Z,1098.7
2023-05-10T17:56:27.570Z,1096.9
2023-05-10T17:58:11.254Z,1094.6
2023-05-10T17:59:55.226Z,1101.4
2023-05-10T18:01:38.668Z,1101.4
2023-05-10T18:03:22.365Z,1104.3
2023-05-10T18:05:06.095Z,1111.1
2023-05-10T18:06:49.774Z,1113.6
2023-05-10T18:08:33.507Z,1114.2
2023-05-10T18:10:17.198Z,1116
2023-05-10T18:12:00.956Z,1116.1
2023-05-10T18:13:44.572Z,1117.7
2023-05-10T18:15:28.274Z,1118.7
2023-05-10T18:17:12.003Z,1116.7
2023-05-10T18:18:55.676Z,1119.4
2023-05-10T18:20:39.384Z,1125.3
2023-05-10T18:22:23.254Z,1130.5
2023-05-10T18:24:06.893Z,1129.2
2023-05-10T18:25:50.656Z,1131.3
2023-05-10T18:27:34.400Z,1129.7
2023-05-10T18:29:18.075Z,1125.4
2023-05-10T18:31:01.674Z,1116.6
2023-05-10T18:32:45.313Z,1111.7
2023-05-10T18:34:29.000Z,1111.6
2023-05-10T18:36:12.703Z,1111.1
2023-05-10T18:37:56.472Z,1109
2023-05-10T18:39:40.183Z,1110.3
2023-05-10T18:41:23.834Z,1114.1
2023-05-10T18:43:07.534Z,1117
2023-05-10T18:44:51.223Z,1119.3
2023-05-10T18:46:35.037Z,1129.5
2023-05-10T18:48:18.621Z,1133.8
2023-05-10T18:50:02.344Z,1140.3
2023-05-10T18:51:46.033Z,1149.3
2023-05-10T18:53:29.801Z,1156.3
2023-05-10T18:55:13.432Z,1157
2023-05-10T18:56:57.214Z,1159.3
2023-05-10T18:58:40.927Z,1153.9
2023-05-10T19:00:24.568Z,1141.2
2023-05-10T19:03:52.065Z,1136.1
2023-05-10T19:05:35.768Z,1140
2023-05-10T19:07:19.443Z,1134.8
2023-05-10T19:09:03.087Z,1137.6
2023-05-10T19:10:46.771Z,1134
2023-05-10T19:12:30.499Z,1134
2023-05-10T19:14:14.180Z,1136.9
2023-05-10T19:15:58.423Z,1136.2
2023-05-10T19:17:41.592Z,1137.2
2023-05-10T19:19:25.445Z,1142.8
2023-05-10T19:21:09.441Z,1190.1
2023-05-10T19:22:52.827Z,1197.8
2023-05-10T19:24:36.479Z,1203.3
2023-05-10T19:26:20.161Z,1199.5
2023-05-10T19:28:03.894Z,1191.6
2023-05-10T19:29:47.573Z,1189
2023-05-10T19:31:31.356Z,1188.8
2023-05-10T19:33:14.983Z,1187.8
2023-05-10T19:34:58.694Z,1184.4
2023-05-10T19:36:42.347Z,1187
2023-05-10T19:38:26.179Z,1191.4
2023-05-10T19:40:10.054Z,1192.6
2023-05-10T19:41:53.431Z,1191.9
2023-05-10T19:43:37.192Z,1192.3
2023-05-10T19:45:20.852Z,1195.2
2023-05-10T19:47:04.605Z,1196
2023-05-10T19:48:48.244Z,1192.6
2023-05-10T19:50:32.098Z,1184.2
2023-05-10T19:52:15.753Z,1177.9
2023-05-10T19:53:59.563Z,1172
2023-05-10T19:55:43.164Z,1174.9
2023-05-10T19:57:26.967Z,1178.4
2023-05-10T19:59:10.576Z,1184.1
2023-05-10T20:00:54.168Z,1184.8
2023-05-10T20:02:37.975Z,1181.2
2023-05-10T20:04:21.578Z,1176.6
2023-05-10T20:06:05.408Z,1182.9
2023-05-10T20:07:49.026Z,1186
2023-05-10T20:09:32.726Z,1187.9
2023-05-10T20:11:16.422Z,1189
2023-05-10T20:13:00.114Z,1185.7
2023-05-10T20:14:43.887Z,1181.5
2023-05-10T20:16:27.502Z,1179.7
2023-05-10T20:18:11.236Z,1179
2023-05-10T20:19:55.008Z,1180.2
2023-05-10T20:21:38.770Z,1185.4
2023-05-10T20:23:22.371Z,1185
2023-05-10T20:25:06.025Z,1181.1
2023-05-10T20:26:49.739Z,1178.9
2023-05-10T20:28:33.677Z,1173.6
2023-05-10T20:30:17.153Z,1177.7
2023-05-10T20:32:00.818Z,1177.8
2023-05-10T20:33:44.536Z,1176.3
2023-05-10T20:35:28.256Z,1174.7
2023-05-10T20:37:11.980Z,1174.6
2023-05-10T20:38:55.678Z,1180.9
2023-05-10T20:40:39.348Z,1184.3
2023-05-10T20:42:23.046Z,1187.5
2023-05-10T20:44:06.730Z,1187.8
2023-05-10T20:45:50.467Z,1187.2
2023-05-10T20:47:34.163Z,1183.2
2023-05-10T20:49:17.854Z,1182.1
2023-05-10T20:51:01.553Z,1186.1
2023-05-10T20:52:45.251Z,1190.1
2023-05-10T20:54:28.963Z,1186.5
2023-05-10T20:56:12.680Z,1183.1
2023-05-10T20:57:56.356Z,1177.3
2023-05-10T20:59:40.092Z,1174.6
2023-05-10T21:01:23.776Z,1171.5
2023-05-10T21:03:07.486Z,1172.9
2023-05-10T21:04:51.157Z,1173.9
2023-05-10T21:06:34.859Z,1174.8
2023-05-10T21:08:18.571Z,1174.5
2023-05-10T21:10:02.274Z,1175.2
2023-05-10T21:11:45.974Z,1176.6
2023-05-10T21:13:29.838Z,1178.1
2023-05-10T21:15:13.481Z,1176.8
2023-05-10T21:16:57.125Z,1175.1
2023-05-10T21:18:40.843Z,1172.5
2023-05-10T21:20:24.607Z,1177
2023-05-10T21:22:08.203Z,1178.1
2023-05-10T21:23:51.965Z,1174.9
2023-05-10T21:25:35.590Z,1173.8
2023-05-10T21:27:19.308Z,1173.8
2023-05-10T21:29:03.030Z,1174.8
2023-05-10T21:30:46.732Z,1174.3
2023-05-10T21:32:30.550Z,1171.3
2023-05-10T21:34:14.118Z,1170.6
2023-05-10T21:35:57.871Z,1165
2023-05-10T21:37:41.660Z,1165.5
2023-05-10T21:39:25.280Z,1162.9
2023-05-10T21:41:08.931Z,1163.6
2023-05-10T21:42:52.663Z,1165
2023-05-10T21:44:36.338Z,1165.8
2023-05-10T21:46:20.055Z,1152.7
2023-05-10T21:48:03.776Z,1137.7
2023-05-10T21:49:47.447Z,1131.1
2023-05-10T21:51:31.156Z,1124.9
2023-05-10T21:53:14.850Z,1120.6
2023-05-10T21:54:58.581Z,1112.4
2023-05-10T21:56:42.278Z,1100.5
2023-05-10T21:58:25.963Z,1091
2023-05-10T22:00:09.691Z,1083
2023-05-10T22:01:53.408Z,1075.5
2023-05-10T22:03:37.110Z,1071.1
2023-05-10T22:05:20.776Z,1066.1
2023-05-10T22:07:04.493Z,1060.7
2023-05-10T22:08:48.169Z,1059.2
2023-05-10T22:10:31.885Z,1056.3
2023-05-10T22:12:15.617Z,1051
2023-05-10T22:13:59.290Z,1046.3
2023-05-10T22:15:43.030Z,1039.6
2023-05-10T22:17:26.699Z,1036.6
2023-05-10T22:19:10.393Z,1035.9
2023-05-10T22:20:54.106Z,1030.4
2023-05-10T22:22:37.811Z,1027
2023-05-10T22:24:21.491Z,1024.4
2023-05-10T22:26:05.224Z,1023.5